Terminal Aerodrome Forecast
Issued by NWS Blacksburg, VA

Current Version | Previous Version | Graphics & Text | Print | Product List | Glossary On
Versions: 1 2 3 4 5 6 7 8 9 10 11 12 13 14 15 16
000
FTUS41 KRNK 280524
TAFBLF
TAF
KBLF 280524Z 2806/2906 18003KT P6SM SKC
     FM280900 VRB03KT P6SM SCT050
     FM281500 15004KT P6SM BKN070
     FM290300 17006KT P6SM SCT050 BKN120=

USA.gov is the U.S. government's official web portal to all federal, state and local government web resources and services.